Time;durP1;ratioP1;P1;durP2;ratioP2;P2;SDS_P1;SDS_P2;PMS_P1;PMS_P2;Temp;Humidity;BMP_temperature;BMP_pressure;BME280_temperature;BME280_humidity;BME280_pressure;Samples;Min_cycle;Max_cycle;Signal;HPM_P1;HPM_P2
2024/02/09 00:00:05;;;;;;;7.43;3.17;;;10.00;99.90;;;;;;5012433;28;20026;-51
2024/02/09 00:02:41;;;;;;;10.17;3.00;;;10.00;99.90;;;;;;5012818;28;20121;-52
2024/02/09 00:05:11;;;;;;;7.07;2.42;;;10.00;99.90;;;;;;5012247;28;20403;-51
2024/02/09 00:07:37;;;;;;;9.10;3.20;;;10.00;99.90;;;;;;5012558;28;20176;-52
2024/02/09 00:10:06;;;;;;;10.27;2.50;;;10.00;99.90;;;;;;5012457;28;20498;-55
2024/02/09 00:12:34;;;;;;;9.73;2.95;;;10.00;99.90;;;;;;5012806;28;20034;-52
2024/02/09 00:15:06;;;;;;;8.17;3.03;;;10.00;99.90;;;;;;5010980;28;20030;-52
2024/02/09 00:17:32;;;;;;;9.53;3.00;;;10.00;99.90;;;;;;5012551;28;20462;-52
2024/02/09 00:19:59;;;;;;;12.27;3.13;;;10.00;99.90;;;;;;5012490;28;20033;-50
2024/02/09 00:22:25;;;;;;;7.60;2.70;;;10.00;99.90;;;;;;5011569;28;20049;-53
2024/02/09 00:24:52;;;;;;;6.60;2.20;;;10.00;99.90;;;;;;5012735;28;20022;-52
2024/02/09 00:27:18;;;;;;;11.47;2.93;;;10.00;99.90;;;;;;5011596;28;20567;-50
2024/02/09 00:29:44;;;;;;;7.63;2.63;;;10.00;99.90;;;;;;5012268;28;20467;-52
2024/02/09 00:32:10;;;;;;;8.80;2.57;;;10.00;99.90;;;;;;5012034;28;20034;-52
2024/02/09 00:34:35;;;;;;;12.97;2.60;;;10.00;99.90;;;;;;5012624;28;20080;-50
2024/02/09 00:37:02;;;;;;;8.77;2.97;;;9.90;99.90;;;;;;5012253;28;20034;-52
2024/02/09 00:39:33;;;;;;;10.00;2.50;;;9.90;99.90;;;;;;5012244;28;20034;-52
2024/02/09 00:42:02;;;;;;;9.97;3.70;;;9.90;99.90;;;;;;5012609;28;20384;-53
2024/02/09 00:44:28;;;;;;;10.07;2.45;;;9.90;99.90;;;;;;5012604;28;20035;-54
2024/02/09 00:46:54;;;;;;;10.83;3.00;;;9.90;99.90;;;;;;5012699;28;20121;-52
2024/02/09 00:49:21;;;;;;;10.00;2.80;;;10.00;99.90;;;;;;5012275;28;20117;-54
2024/02/09 00:51:47;;;;;;;8.67;2.27;;;10.00;99.90;;;;;;5012172;28;20042;-55
2024/02/09 00:54:14;;;;;;;8.40;2.40;;;9.90;99.90;;;;;;5012465;28;20038;-51
2024/02/09 00:56:41;;;;;;;10.90;3.20;;;10.00;99.90;;;;;;5011205;28;20049;-53
2024/02/09 00:59:07;;;;;;;6.13;2.30;;;10.00;99.90;;;;;;5012248;28;20026;-52
2024/02/09 01:01:32;;;;;;;8.97;2.60;;;10.00;99.90;;;;;;5012581;28;20061;-52
2024/02/09 01:04:00;;;;;;;13.03;3.60;;;10.00;99.90;;;;;;5012258;28;20103;-55
2024/02/09 01:06:26;;;;;;;8.50;2.70;;;9.90;99.90;;;;;;5012395;28;20038;-54
2024/02/09 01:08:53;;;;;;;10.37;3.03;;;9.90;99.90;;;;;;5012061;28;20034;-52
2024/02/09 01:11:18;;;;;;;8.63;3.07;;;10.00;99.90;;;;;;5012258;28;20450;-54
2024/02/09 02:46:32;;;;;;;8.67;3.03;;;9.90;99.90;;;;;;5014903;28;20493;-54
2024/02/09 03:05:40;;;;;;;5.30;2.10;;;9.80;99.90;;;;;;5001012;28;20053;-52
2024/02/09 03:08:08;;;;;;;9.00;2.50;;;9.80;99.90;;;;;;5013884;28;20103;-51
2024/02/09 03:10:35;;;;;;;11.87;2.97;;;9.80;99.90;;;;;;5014033;28;20479;-51
2024/02/09 03:13:01;;;;;;;7.83;2.43;;;9.70;99.90;;;;;;5014027;28;20053;-50
2024/02/09 03:15:26;;;;;;;6.50;2.27;;;9.80;99.90;;;;;;5013868;28;20033;-51
2024/02/09 03:17:53;;;;;;;4.33;2.00;;;9.70;99.90;;;;;;5013554;28;20030;-51
2024/02/09 03:20:19;;;;;;;8.70;2.33;;;9.70;99.90;;;;;;5013518;28;20072;-50
2024/02/09 03:22:45;;;;;;;5.43;2.03;;;9.70;99.90;;;;;;5013773;28;20034;-54
2024/02/09 03:25:11;;;;;;;9.30;2.37;;;9.70;99.90;;;;;;5013877;28;20493;-51
2024/02/09 03:27:39;;;;;;;7.50;2.60;;;9.70;99.90;;;;;;5013352;28;20041;-55
2024/02/09 03:30:06;;;;;;;7.80;2.00;;;9.80;99.90;;;;;;5013706;28;20541;-50
2024/02/09 03:32:33;;;;;;;9.63;2.37;;;9.80;99.90;;;;;;5013575;28;20457;-55
2024/02/09 03:35:01;;;;;;;9.57;2.47;;;9.80;99.90;;;;;;5013514;28;20030;-54
2024/02/09 03:37:27;;;;;;;10.57;2.70;;;9.70;99.90;;;;;;5013699;28;20080;-52
2024/02/09 03:39:53;;;;;;;6.87;2.50;;;9.70;99.90;;;;;;5013522;28;20057;-54
2024/02/09 03:42:21;;;;;;;8.57;2.20;;;9.70;99.90;;;;;;5013765;28;20037;-52
2024/02/09 03:44:48;;;;;;;9.87;2.90;;;9.70;99.90;;;;;;5013297;28;20040;-54
2024/02/09 03:47:14;;;;;;;5.37;2.20;;;9.70;99.90;;;;;;5013392;28;20034;-52
2024/02/09 03:49:41;;;;;;;4.83;1.97;;;9.80;99.90;;;;;;5013395;28;20026;-51
2024/02/09 03:52:07;;;;;;;8.97;2.30;;;9.70;99.90;;;;;;5013484;28;20033;-54
2024/02/09 03:54:34;;;;;;;8.50;2.70;;;9.70;99.90;;;;;;5013523;28;20034;-53
2024/02/09 03:57:00;;;;;;;5.70;1.90;;;9.70;99.90;;;;;;5012076;28;20033;-51
2024/02/09 03:59:27;;;;;;;5.87;2.03;;;9.70;99.90;;;;;;5012717;28;20557;-53
2024/02/09 04:01:53;;;;;;;7.50;2.10;;;9.70;99.90;;;;;;5013062;28;20029;-54
2024/02/09 04:04:18;;;;;;;11.10;2.43;;;9.70;99.90;;;;;;5013089;28;20471;-55
2024/02/09 04:06:44;;;;;;;5.40;1.67;;;9.70;99.90;;;;;;5013377;28;20475;-53
2024/02/09 04:09:09;;;;;;;5.70;1.90;;;9.60;99.90;;;;;;5013003;28;20034;-52
2024/02/09 04:11:35;;;;;;;9.13;2.40;;;9.60;99.90;;;;;;5013159;28;20471;-55
2024/02/09 04:14:00;;;;;;;6.90;2.67;;;9.70;99.90;;;;;;5012302;28;20033;-52
2024/02/09 04:16:26;;;;;;;7.23;2.27;;;9.60;99.90;;;;;;5010280;28;20550;-55
2024/02/09 04:18:53;;;;;;;2.80;1.03;;;9.60;99.90;;;;;;5017087;28;20045;-50
2024/02/09 04:21:18;;;;;;;7.63;1.60;;;9.70;99.90;;;;;;5027401;28;20336;-54
2024/02/09 04:23:44;;;;;;;6.30;1.93;;;9.70;99.90;;;;;;5024318;28;20387;-54
2024/02/09 04:26:10;;;;;;;6.20;1.90;;;9.60;99.90;;;;;;5019473;28;20148;-54
2024/02/09 04:28:36;;;;;;;7.60;2.47;;;9.60;99.90;;;;;;5028378;28;20087;-53
2024/02/09 04:31:02;;;;;;;11.23;2.40;;;9.60;99.90;;;;;;5017230;28;20029;-53
2024/02/09 04:33:28;;;;;;;7.90;2.27;;;9.60;99.90;;;;;;5027285;28;20394;-56
2024/02/09 04:35:56;;;;;;;3.50;1.70;;;9.60;99.90;;;;;;5030762;28;20021;-53
2024/02/09 04:38:22;;;;;;;6.30;2.00;;;9.60;99.90;;;;;;5012553;28;20045;-52
2024/02/09 04:40:48;;;;;;;4.00;2.00;;;9.60;99.90;;;;;;5016704;28;20041;-52
2024/02/09 04:43:13;;;;;;;4.13;2.00;;;9.60;99.90;;;;;;5010518;28;20030;-56
2024/02/09 04:45:39;;;;;;;7.23;2.33;;;9.60;99.90;;;;;;5020399;28;20387;-56
2024/02/09 04:48:05;;;;;;;5.97;2.13;;;9.60;99.90;;;;;;5016437;28;20160;-51
2024/02/09 04:50:30;;;;;;;6.67;2.10;;;9.60;99.90;;;;;;5018045;28;20521;-52
2024/02/09 04:52:56;;;;;;;4.63;2.10;;;9.60;99.90;;;;;;5014295;28;20026;-51
2024/02/09 04:55:22;;;;;;;5.23;1.60;;;9.60;99.90;;;;;;5021934;28;20047;-51
2024/02/09 04:57:47;;;;;;;9.00;2.00;;;9.60;99.90;;;;;;5026754;28;20041;-50
2024/02/09 05:00:13;;;;;;;6.27;1.50;;;9.60;99.90;;;;;;5019679;28;20109;-54
2024/02/09 05:02:43;;;;;;;6.60;2.20;;;9.60;99.90;;;;;;5031998;28;20120;-55
2024/02/09 05:05:10;;;;;;;4.50;1.87;;;9.60;99.90;;;;;;5033795;28;20025;-52
2024/02/09 05:07:36;;;;;;;6.57;1.60;;;9.60;99.90;;;;;;5025499;28;20040;-50
2024/02/09 05:10:01;;;;;;;6.10;2.37;;;9.60;99.90;;;;;;5033986;28;20112;-51
2024/02/09 05:12:30;;;;;;;5.07;2.07;;;9.60;99.90;;;;;;5025833;28;20026;-51
2024/02/09 05:14:57;;;;;;;7.68;1.98;;;9.60;99.90;;;;;;5034070;28;20056;-52
2024/02/09 05:17:22;;;;;;;6.87;1.80;;;9.60;99.90;;;;;;5018347;28;20390;-53
2024/02/09 05:19:48;;;;;;;5.13;1.53;;;9.60;99.90;;;;;;5025132;28;20034;-55
2024/02/09 05:22:14;;;;;;;3.53;1.80;;;9.60;99.90;;;;;;5033830;28;20049;-53
2024/02/09 05:24:39;;;;;;;5.47;1.40;;;9.60;99.90;;;;;;5033810;28;20397;-53
2024/02/09 05:27:05;;;;;;;3.87;1.43;;;9.60;99.90;;;;;;5028560;28;20038;-50
2024/02/09 05:29:30;;;;;;;3.83;1.63;;;9.60;99.90;;;;;;5022261;28;20379;-54
2024/02/09 05:31:58;;;;;;;3.63;1.70;;;9.60;99.90;;;;;;5031164;28;20061;-51
2024/02/09 05:34:24;;;;;;;8.07;1.63;;;9.70;99.90;;;;;;5025353;28;20117;-51
2024/02/09 05:36:54;;;;;;;3.90;1.40;;;9.70;99.90;;;;;;5025168;28;20037;-51
2024/02/09 05:39:19;;;;;;;7.47;1.77;;;9.70;99.90;;;;;;5025189;28;20391;-52
2024/02/09 05:41:45;;;;;;;2.87;1.73;;;9.70;99.90;;;;;;5023746;28;20025;-53
2024/02/09 05:44:11;;;;;;;6.13;1.60;;;9.70;99.90;;;;;;5030240;28;20467;-53
2024/02/09 05:46:37;;;;;;;1.83;1.07;;;9.70;99.90;;;;;;5022874;28;20094;-52
2024/02/09 05:49:06;;;;;;;4.63;1.53;;;9.70;99.90;;;;;;5033085;28;20116;-52
2024/02/09 05:51:33;;;;;;;3.47;1.73;;;9.70;99.90;;;;;;5018351;28;20034;-49
2024/02/09 05:53:59;;;;;;;3.43;1.57;;;9.60;99.90;;;;;;5026788;28;20044;-51
2024/02/09 05:56:27;;;;;;;5.20;1.53;;;9.70;99.90;;;;;;5033318;28;20037;-54
2024/02/09 05:58:56;;;;;;;4.30;1.20;;;9.70;99.90;;;;;;5029562;28;20428;-53
2024/02/09 06:01:29;;;;;;;5.93;1.43;;;9.70;99.90;;;;;;5020250;28;20120;-49
2024/02/09 06:03:54;;;;;;;2.83;1.63;;;9.70;99.90;;;;;;5024220;28;20489;-53
2024/02/09 06:06:23;;;;;;;3.50;1.20;;;9.60;99.90;;;;;;5033004;28;20029;-53
2024/02/09 06:08:49;;;;;;;1.33;0.75;;;9.70;99.90;;;;;;5024521;28;20042;-51
2024/02/09 06:11:15;;;;;;;2.13;1.00;;;9.70;99.90;;;;;;5027338;28;20038;-55
2024/02/09 06:13:45;;;;;;;1.97;1.10;;;9.80;99.90;;;;;;5020165;28;20057;-54
2024/02/09 06:16:20;;;;;;;3.60;1.52;;;9.80;99.90;;;;;;5020964;28;20088;-53
2024/02/09 06:18:49;;;;;;;3.37;2.03;;;9.80;99.90;;;;;;5023184;28;20075;-52
2024/02/09 06:21:18;;;;;;;4.47;1.20;;;9.80;99.90;;;;;;5015735;28;20041;-54
2024/02/09 06:24:01;;;;;;;5.80;1.20;;;9.80;99.90;;;;;;5028732;28;20451;-51
2024/02/09 06:26:27;;;;;;;5.30;1.57;;;9.80;99.90;;;;;;5020015;28;20062;-51
2024/02/09 06:28:53;;;;;;;2.97;1.53;;;9.80;99.90;;;;;;5028027;28;21047;-51
2024/02/09 06:31:26;;;;;;;4.13;1.53;;;9.90;99.90;;;;;;5027718;28;20029;-52
2024/02/09 06:33:54;;;;;;;4.90;1.53;;;9.90;99.90;;;;;;5030382;28;20049;-53
2024/02/09 06:36:21;;;;;;;3.63;1.65;;;9.90;99.90;;;;;;5018149;28;20056;-55
2024/02/09 06:38:48;;;;;;;2.00;1.07;;;9.80;99.90;;;;;;5023784;28;20026;-55
2024/02/09 06:41:13;;;;;;;6.20;2.13;;;9.80;99.90;;;;;;5018671;28;20029;-55
2024/02/09 06:43:39;;;;;;;3.67;1.77;;;9.90;99.90;;;;;;5032403;28;20025;-54
2024/02/09 06:46:05;;;;;;;3.30;1.87;;;9.90;99.90;;;;;;5024015;28;20563;-55
2024/02/09 06:48:31;;;;;;;4.53;1.90;;;10.00;99.90;;;;;;5032775;28;20026;-55
2024/02/09 06:51:00;;;;;;;3.93;1.60;;;10.00;99.90;;;;;;5020994;28;20029;-50
2024/02/09 06:53:26;;;;;;;3.97;2.20;;;10.00;99.90;;;;;;5027309;28;20369;-50
2024/02/09 06:55:53;;;;;;;4.13;1.40;;;10.00;99.90;;;;;;5029040;28;20030;-51
2024/02/09 06:58:24;;;;;;;4.20;1.40;;;10.00;99.90;;;;;;5017620;28;20425;-51
2024/02/09 07:00:53;;;;;;;2.83;1.60;;;10.00;99.90;;;;;;5030065;28;20053;-52
2024/02/09 07:03:21;;;;;;;4.47;1.42;;;10.00;99.90;;;;;;5026307;28;20033;-52
2024/02/09 07:05:51;;;;;;;4.63;1.40;;;10.00;99.90;;;;;;5020842;28;20021;-52
2024/02/09 07:08:19;;;;;;;4.80;1.90;;;10.00;99.90;;;;;;5031781;28;20026;-53
2024/02/09 07:10:45;;;;;;;2.20;1.20;;;10.10;99.90;;;;;;5023661;28;20060;-50
2024/02/09 07:13:10;;;;;;;2.60;1.27;;;10.10;99.90;;;;;;5030363;28;20041;-53
2024/02/09 07:15:36;;;;;;;3.17;1.27;;;10.10;99.90;;;;;;5031637;28;20037;-53
2024/02/09 07:18:02;;;;;;;4.20;2.40;;;10.10;99.90;;;;;;5027703;28;20022;-54
2024/02/09 07:20:27;;;;;;;4.93;1.70;;;10.10;99.90;;;;;;5026840;28;20022;-51
2024/02/09 07:22:53;;;;;;;5.93;1.97;;;10.10;99.90;;;;;;5030871;28;20025;-51
2024/02/09 07:25:19;;;;;;;3.97;1.80;;;10.20;99.90;;;;;;5027791;28;20053;-52
2024/02/09 07:27:45;;;;;;;3.17;1.50;;;10.10;99.90;;;;;;5022566;28;20033;-51
2024/02/09 07:30:12;;;;;;;4.40;1.50;;;10.10;99.90;;;;;;5018762;28;20475;-52
2024/02/09 07:32:38;;;;;;;1.93;0.87;;;10.20;99.90;;;;;;5019219;28;20071;-55
2024/02/09 07:35:04;;;;;;;4.73;1.30;;;10.20;99.90;;;;;;5023142;28;20029;-50
2024/02/09 07:37:30;;;;;;;15.43;5.80;;;10.20;99.90;;;;;;5013738;28;20812;-50
2024/02/09 07:39:56;;;;;;;11.27;2.73;;;10.30;99.90;;;;;;5019886;28;20033;-51
2024/02/09 07:42:24;;;;;;;6.23;2.37;;;10.40;99.90;;;;;;5029706;28;20025;-50
2024/02/09 07:44:50;;;;;;;3.33;1.40;;;10.50;99.90;;;;;;5028501;28;20379;-55
2024/02/09 07:47:16;;;;;;;2.10;1.20;;;10.40;99.90;;;;;;5010381;28;20429;-53
2024/02/09 07:49:43;;;;;;;2.83;0.93;;;10.50;99.90;;;;;;5010857;28;20036;-55
2024/02/09 07:52:09;;;;;;;3.50;1.00;;;10.50;99.90;;;;;;5010970;28;20049;-54
2024/02/09 07:54:36;;;;;;;4.20;1.23;;;10.40;99.90;;;;;;5019740;28;20037;-54
2024/02/09 07:57:02;;;;;;;2.50;1.70;;;10.40;99.90;;;;;;5021175;28;20030;-52
2024/02/09 07:59:28;;;;;;;5.90;2.13;;;10.40;99.90;;;;;;5022175;28;20036;-55
2024/02/09 08:01:56;;;;;;;4.03;1.83;;;10.30;99.90;;;;;;5023899;28;20029;-52
2024/02/09 08:04:22;;;;;;;5.13;1.50;;;10.30;99.90;;;;;;5012762;28;20038;-50
2024/02/09 08:06:47;;;;;;;2.67;1.40;;;10.30;99.90;;;;;;5020494;28;20108;-54
2024/02/09 08:09:14;;;;;;;3.17;1.30;;;10.20;99.90;;;;;;5017895;28;20080;-55
2024/02/09 08:11:42;;;;;;;4.47;1.30;;;10.20;99.90;;;;;;5017588;28;20046;-52
2024/02/09 08:14:08;;;;;;;4.67;1.47;;;10.20;99.90;;;;;;5021797;28;20106;-54
2024/02/09 08:16:34;;;;;;;3.57;1.30;;;10.10;99.90;;;;;;5023032;28;20406;-54
2024/02/09 08:18:59;;;;;;;4.47;1.40;;;10.10;99.90;;;;;;5016809;28;20022;-51
2024/02/09 08:21:25;;;;;;;3.60;1.33;;;10.10;99.90;;;;;;5022395;28;20497;-51
2024/02/09 08:23:51;;;;;;;4.27;1.37;;;10.10;99.90;;;;;;5025925;28;20025;-54
2024/02/09 08:26:17;;;;;;;3.27;1.67;;;10.00;99.90;;;;;;5027891;28;20032;-53
2024/02/09 08:28:47;;;;;;;4.47;1.67;;;10.00;99.90;;;;;;5018474;28;20375;-53
2024/02/09 08:31:17;;;;;;;3.77;1.60;;;10.00;99.90;;;;;;5017599;28;20069;-57
2024/02/09 08:33:44;;;;;;;4.40;1.57;;;10.00;99.90;;;;;;5026807;28;20030;-55
2024/02/09 08:36:11;;;;;;;3.80;1.70;;;10.00;99.90;;;;;;5020613;28;20386;-54
2024/02/09 08:38:37;;;;;;;4.27;1.80;;;10.00;99.90;;;;;;5030841;28;20040;-55
2024/02/09 08:41:05;;;;;;;4.10;2.33;;;10.00;99.90;;;;;;5025207;28;20064;-53
2024/02/09 08:43:31;;;;;;;7.47;2.07;;;10.00;99.90;;;;;;5016910;28;20030;-51
2024/02/09 08:45:56;;;;;;;7.40;2.23;;;10.00;99.90;;;;;;5011846;28;20092;-54
2024/02/09 08:48:22;;;;;;;3.87;2.37;;;10.00;99.90;;;;;;5021344;28;20037;-54
2024/02/09 08:50:49;;;;;;;3.37;1.77;;;10.10;99.90;;;;;;5013208;28;20510;-52
2024/02/09 08:53:15;;;;;;;5.53;2.80;;;10.10;99.90;;;;;;5011693;28;20034;-56
2024/02/09 08:55:40;;;;;;;7.50;2.60;;;10.10;99.90;;;;;;5022942;28;20433;-55
2024/02/09 08:58:07;;;;;;;9.07;2.33;;;10.10;99.90;;;;;;5023739;28;20025;-55
2024/02/09 09:00:36;;;;;;;4.73;2.60;;;10.20;99.90;;;;;;5022121;28;20034;-56
2024/02/09 09:03:01;;;;;;;8.68;2.92;;;10.20;99.90;;;;;;5028448;28;20040;-54
2024/02/09 09:05:28;;;;;;;6.70;2.73;;;10.20;99.90;;;;;;5014528;28;20021;-54
2024/02/09 09:07:54;;;;;;;4.57;2.07;;;10.30;99.90;;;;;;5022445;28;20104;-55
2024/02/09 09:10:20;;;;;;;8.03;2.30;;;10.30;99.90;;;;;;5024085;28;20474;-55
2024/02/09 09:12:46;;;;;;;3.73;1.90;;;10.40;99.90;;;;;;5013166;28;20053;-54
2024/02/09 09:15:12;;;;;;;5.47;2.50;;;10.40;99.90;;;;;;5018325;28;20041;-54
2024/02/09 09:17:37;;;;;;;4.20;2.03;;;10.40;99.90;;;;;;5014837;28;20033;-53
2024/02/09 09:20:03;;;;;;;4.90;1.80;;;10.40;99.90;;;;;;5024842;28;20448;-53
2024/02/09 09:22:31;;;;;;;4.13;2.53;;;10.50;99.90;;;;;;5016264;28;20053;-50
2024/02/09 09:24:57;;;;;;;5.43;2.23;;;10.50;99.90;;;;;;5004702;28;20435;-49
2024/02/09 09:27:23;;;;;;;5.73;2.10;;;10.60;99.90;;;;;;5006282;28;20077;-54
2024/02/09 09:29:52;;;;;;;6.53;2.10;;;10.70;99.90;;;;;;5005953;28;20057;-52
2024/02/09 09:32:20;;;;;;;7.10;2.17;;;10.70;99.90;;;;;;5007920;28;20030;-53
2024/02/09 09:34:46;;;;;;;7.07;2.40;;;10.70;99.90;;;;;;5005967;28;20034;-54
2024/02/09 09:37:11;;;;;;;6.97;2.03;;;10.80;99.90;;;;;;5008337;28;20042;-52
2024/02/09 09:39:37;;;;;;;4.23;1.80;;;10.90;99.90;;;;;;5015958;28;20129;-53
2024/02/09 09:42:03;;;;;;;2.80;1.70;;;10.80;99.90;;;;;;5018548;28;20061;-55
2024/02/09 09:44:29;;;;;;;5.40;1.90;;;10.90;99.90;;;;;;5018143;28;20100;-56
2024/02/09 09:46:57;;;;;;;3.83;1.80;;;11.00;99.90;;;;;;5011200;28;20041;-53
2024/02/09 09:49:26;;;;;;;28.63;11.87;;;11.10;99.90;;;;;;5022835;28;20048;-51
2024/02/09 09:51:57;;;;;;;7.28;2.83;;;11.30;99.90;;;;;;5033126;28;20053;-51
2024/02/09 09:54:23;;;;;;;5.00;1.92;;;11.50;99.90;;;;;;5033120;28;20044;-54
2024/02/09 09:56:49;;;;;;;4.50;1.75;;;11.60;99.90;;;;;;5024799;28;20034;-53
2024/02/09 09:59:17;;;;;;;3.45;1.30;;;11.80;99.90;;;;;;5020044;28;20026;-55
2024/02/09 10:01:46;;;;;;;5.10;1.83;;;11.90;99.90;;;;;;5019069;28;20037;-54
2024/02/09 10:04:11;;;;;;;4.00;1.60;;;12.00;99.90;;;;;;5032918;28;20454;-51
2024/02/09 10:06:37;;;;;;;3.35;1.25;;;12.10;99.90;;;;;;5031709;28;20382;-56
2024/02/09 10:09:04;;;;;;;1.75;1.00;;;12.20;99.90;;;;;;5031041;28;20096;-54
2024/02/09 10:11:32;;;;;;;4.55;1.35;;;12.30;99.90;;;;;;5032693;28;20038;-56
2024/02/09 10:13:57;;;;;;;3.75;1.30;;;12.40;99.90;;;;;;5031647;28;20037;-52
2024/02/09 10:16:23;;;;;;;2.92;1.30;;;12.40;99.90;;;;;;5025307;28;20028;-56
2024/02/09 10:18:48;;;;;;;4.47;1.40;;;12.40;99.90;;;;;;5032386;28;20445;-56
2024/02/09 10:21:14;;;;;;;3.53;1.17;;;12.40;99.90;;;;;;5032294;28;20152;-53
2024/02/09 10:23:40;;;;;;;4.43;1.25;;;12.50;99.90;;;;;;5031388;28;20057;-54
2024/02/09 10:26:06;;;;;;;5.95;1.50;;;12.50;99.90;;;;;;5011972;28;20112;-51
2024/02/09 10:28:33;;;;;;;3.20;1.48;;;12.60;99.90;;;;;;5010305;28;20582;-54
2024/02/09 10:30:59;;;;;;;3.42;1.50;;;12.60;99.90;;;;;;5020872;28;20042;-54
2024/02/09 10:33:26;;;;;;;3.45;1.27;;;12.60;99.90;;;;;;5032815;28;20518;-52
2024/02/09 10:36:01;;;;;;;3.33;1.10;;;12.60;99.90;;;;;;5033343;28;20044;-53
2024/02/09 10:38:27;;;;;;;2.13;1.00;;;12.60;99.90;;;;;;5020680;28;20113;-50
2024/02/09 10:40:59;;;;;;;5.20;1.25;;;12.60;99.90;;;;;;5029558;28;20038;-55
2024/02/09 10:43:30;;;;;;;5.05;1.20;;;12.60;99.90;;;;;;5005224;28;20429;-52
2024/02/09 10:45:57;;;;;;;5.32;1.30;;;12.60;99.90;;;;;;5011001;28;20106;-53
2024/02/09 10:48:34;;;;;;;2.88;1.15;;;12.70;99.90;;;;;;5012633;28;20037;-54
2024/02/09 10:51:08;;;;;;;1.52;0.77;;;12.70;99.90;;;;;;5013670;28;20037;-53
2024/02/09 10:53:41;;;;;;;5.25;1.20;;;12.80;99.90;;;;;;5014289;28;20030;-53
2024/02/09 10:56:12;;;;;;;3.33;0.88;;;12.80;99.90;;;;;;5014080;28;20154;-55
2024/02/09 10:58:41;;;;;;;2.75;0.90;;;12.90;99.90;;;;;;5013699;28;20037;-54
2024/02/09 11:01:07;;;;;;;2.30;1.00;;;12.90;99.90;;;;;;5013607;28;20553;-50
2024/02/09 11:03:34;;;;;;;3.30;0.95;;;12.90;99.90;;;;;;5018065;28;20057;-53
2024/02/09 11:06:01;;;;;;;3.97;0.90;;;12.90;99.90;;;;;;5021246;28;20036;-52
2024/02/09 11:08:29;;;;;;;2.55;0.90;;;12.90;99.90;;;;;;5015380;28;20502;-51
2024/02/09 11:11:02;;;;;;;4.15;0.93;;;12.80;99.90;;;;;;5013248;28;20101;-55
2024/02/09 11:13:27;;;;;;;5.82;1.10;;;12.80;99.90;;;;;;5014269;28;20034;-50
2024/02/09 11:15:57;;;;;;;2.72;1.00;;;12.80;99.90;;;;;;5013867;28;20041;-51
2024/02/09 11:18:37;;;;;;;2.42;0.80;;;12.70;99.90;;;;;;5013421;28;20042;-53
2024/02/09 11:21:04;;;;;;;4.03;1.17;;;12.70;99.90;;;;;;5013485;28;20096;-50
2024/02/09 11:23:36;;;;;;;2.40;0.95;;;12.70;99.90;;;;;;5013390;28;20057;-51
2024/02/09 11:26:02;;;;;;;3.28;1.00;;;12.60;99.90;;;;;;5013536;28;20050;-53
2024/02/09 11:28:27;;;;;;;2.95;1.10;;;12.50;99.90;;;;;;5012961;28;20573;-49
2024/02/09 11:30:58;;;;;;;2.40;1.05;;;12.60;99.90;;;;;;5013145;28;20482;-51
2024/02/09 11:33:23;;;;;;;2.28;0.95;;;12.60;99.90;;;;;;5013084;28;20045;-51
2024/02/09 11:35:49;;;;;;;2.90;0.80;;;12.70;99.90;;;;;;5012903;28;20088;-50
2024/02/09 11:38:20;;;;;;;3.83;1.10;;;12.70;99.90;;;;;;5012826;28;20034;-50
2024/02/09 11:40:50;;;;;;;2.17;1.10;;;12.80;99.90;;;;;;5013105;28;20399;-51
2024/02/09 11:43:16;;;;;;;5.22;1.23;;;12.80;99.90;;;;;;5012836;28;20030;-49
2024/02/09 11:45:43;;;;;;;2.90;1.45;;;12.70;99.90;;;;;;5012986;28;20026;-51
2024/02/09 11:48:10;;;;;;;3.60;1.10;;;12.80;99.90;;;;;;5012788;28;20434;-50
2024/02/09 11:50:36;;;;;;;3.05;0.75;;;12.80;99.90;;;;;;5012896;28;20041;-50
2024/02/09 11:53:06;;;;;;;3.88;1.30;;;12.80;99.90;;;;;;5012594;28;20100;-50
2024/02/09 11:55:32;;;;;;;2.97;1.10;;;12.80;99.90;;;;;;5012722;28;20438;-49
2024/02/09 11:57:58;;;;;;;7.78;1.27;;;12.70;99.90;;;;;;5012617;28;20029;-49
2024/02/09 12:00:28;;;;;;;10.43;2.38;;;12.70;99.90;;;;;;5011628;28;20034;-50
2024/02/09 12:02:54;;;;;;;3.15;1.08;;;12.70;99.90;;;;;;5012707;28;20022;-51
2024/02/09 12:05:19;;;;;;;1.85;0.88;;;12.80;99.90;;;;;;5012657;28;20034;-50
2024/02/09 12:07:45;;;;;;;3.53;1.27;;;12.90;99.90;;;;;;5013247;28;20030;-49
2024/02/09 12:10:11;;;;;;;3.22;1.00;;;12.90;99.90;;;;;;5010776;28;20045;-48
2024/02/09 12:12:36;;;;;;;3.40;1.17;;;13.00;99.90;;;;;;5012967;28;20149;-49
2024/02/09 12:15:03;;;;;;;3.83;1.15;;;13.00;99.90;;;;;;5013257;28;20034;-49
2024/02/09 12:17:30;;;;;;;2.53;0.88;;;13.10;99.90;;;;;;5013330;28;20048;-51
2024/02/09 12:20:00;;;;;;;3.10;1.00;;;13.10;99.90;;;;;;5013719;28;20041;-52
2024/02/09 12:22:29;;;;;;;3.72;1.00;;;13.10;99.90;;;;;;5014398;28;20048;-54
2024/02/09 12:24:55;;;;;;;4.30;1.10;;;13.10;99.90;;;;;;5014026;28;20026;-53
2024/02/09 12:27:21;;;;;;;3.78;0.93;;;13.20;99.90;;;;;;5014346;28;20048;-53
2024/02/09 12:29:47;;;;;;;2.40;0.95;;;13.20;99.90;;;;;;5014122;28;20029;-52
2024/02/09 12:32:13;;;;;;;4.43;0.93;;;13.20;99.90;;;;;;5013850;28;20088;-55
2024/02/09 12:34:43;;;;;;;1.92;0.85;;;13.10;99.90;;;;;;5011997;28;20034;-54
2024/02/09 12:37:09;;;;;;;2.17;0.90;;;13.20;99.90;;;;;;5012015;28;20506;-51
2024/02/09 12:39:36;;;;;;;5.45;1.63;;;13.20;99.90;;;;;;5011876;28;20383;-53
2024/02/09 12:42:02;;;;;;;3.47;1.10;;;13.20;99.90;;;;;;5012271;28;20030;-53
2024/02/09 12:44:29;;;;;;;4.07;1.20;;;13.10;99.90;;;;;;5012056;28;20045;-49
2024/02/09 12:47:02;;;;;;;2.90;0.95;;;13.20;99.90;;;;;;5012055;28;20040;-54
2024/02/09 12:49:28;;;;;;;3.05;0.80;;;13.20;99.90;;;;;;5011850;28;20025;-51
2024/02/09 12:51:54;;;;;;;2.47;1.30;;;13.20;99.90;;;;;;5011966;28;20168;-51
2024/02/09 12:54:19;;;;;;;4.07;1.10;;;13.20;99.90;;;;;;5011911;28;20125;-50
2024/02/09 12:56:45;;;;;;;3.05;1.08;;;13.20;99.90;;;;;;5011971;28;20021;-53
2024/02/09 12:59:11;;;;;;;2.15;0.93;;;13.20;99.90;;;;;;5011675;28;20465;-50
2024/02/09 13:01:36;;;;;;;3.95;1.23;;;13.20;99.90;;;;;;5011879;28;20026;-48
2024/02/09 13:04:02;;;;;;;1.65;0.82;;;13.20;99.90;;;;;;5010489;28;20042;-49
2024/02/09 13:06:28;;;;;;;2.75;1.15;;;13.20;99.90;;;;;;5011807;28;20037;-54
2024/02/09 13:08:56;;;;;;;2.95;1.02;;;13.10;99.90;;;;;;5011682;28;20113;-49
2024/02/09 13:11:23;;;;;;;2.05;1.05;;;13.10;99.90;;;;;;5011704;28;20030;-51
2024/02/09 13:13:49;;;;;;;2.35;0.90;;;13.20;99.90;;;;;;5011649;28;20099;-50
2024/02/09 13:16:15;;;;;;;4.53;1.17;;;13.20;99.90;;;;;;5011735;28;20438;-53
2024/02/09 13:18:41;;;;;;;2.05;0.70;;;13.30;99.90;;;;;;5011545;28;20072;-50
2024/02/09 13:21:07;;;;;;;2.13;1.00;;;13.20;99.90;;;;;;5011672;28;20499;-53
2024/02/09 13:23:34;;;;;;;3.20;1.08;;;13.30;99.90;;;;;;5015559;28;20044;-48
2024/02/09 13:26:00;;;;;;;3.78;1.45;;;13.30;99.90;;;;;;5015488;28;20037;-50
2024/02/09 13:28:29;;;;;;;2.55;1.10;;;13.40;99.90;;;;;;5015197;28;20534;-52
2024/02/09 13:30:56;;;;;;;4.30;1.75;;;13.40;99.90;;;;;;5015289;28;20026;-49
2024/02/09 13:33:22;;;;;;;1.92;1.00;;;13.30;99.90;;;;;;5015374;28;20052;-50
2024/02/09 13:35:47;;;;;;;3.35;1.42;;;13.30;99.90;;;;;;5015360;28;20034;-51
2024/02/09 13:38:13;;;;;;;2.40;1.00;;;13.30;99.90;;;;;;5015096;28;20034;-50
2024/02/09 13:40:39;;;;;;;2.15;0.70;;;13.30;99.90;;;;;;5015197;28;20022;-52
2024/02/09 13:43:05;;;;;;;1.75;0.90;;;13.30;99.90;;;;;;5015041;28;20045;-52
2024/02/09 13:45:30;;;;;;;1.70;0.70;;;13.30;99.90;;;;;;5015164;28;20471;-50
2024/02/09 13:47:57;;;;;;;2.47;0.90;;;13.30;99.90;;;;;;5014904;28;20030;-49
2024/02/09 13:50:25;;;;;;;6.05;1.15;;;13.30;99.90;;;;;;5014939;28;20037;-53
2024/02/09 13:52:56;;;;;;;3.13;1.00;;;13.40;99.90;;;;;;5015000;28;20070;-50
2024/02/09 13:55:22;;;;;;;4.15;1.10;;;13.40;99.90;;;;;;5014914;28;20053;-54
2024/02/09 13:57:54;;;;;;;4.05;0.95;;;13.50;99.90;;;;;;5014609;28;20522;-53
2024/02/09 14:00:21;;;;;;;2.70;0.93;;;13.50;99.90;;;;;;5014774;28;20026;-51
2024/02/09 14:02:47;;;;;;;1.33;0.80;;;13.60;99.90;;;;;;5014708;28;20457;-53
2024/02/09 14:05:14;;;;;;;5.55;1.30;;;13.50;99.90;;;;;;5014598;28;20121;-49
2024/02/09 14:07:40;;;;;;;5.32;1.17;;;13.50;99.90;;;;;;5014605;28;20026;-52
2024/02/09 14:10:11;;;;;;;4.57;1.08;;;13.50;99.90;;;;;;5014584;28;20249;-51
2024/02/09 14:12:38;;;;;;;2.28;1.00;;;13.60;99.90;;;;;;5014703;28;20030;-50
2024/02/09 14:15:04;;;;;;;4.63;1.02;;;13.60;99.90;;;;;;5014576;28;20042;-52
2024/02/09 14:17:31;;;;;;;5.88;2.00;;;13.60;99.90;;;;;;5014248;28;20042;-51
2024/02/09 14:20:00;;;;;;;3.13;1.58;;;13.60;99.90;;;;;;5014366;28;20022;-53
2024/02/09 14:22:26;;;;;;;;;;;13.40;99.90;;;;;;5015079;28;20030;-54
2024/02/09 14:24:52;;;;;;;1.45;0.98;;;13.50;99.90;;;;;;5014293;28;19963;-53
2024/02/09 14:27:18;;;;;;;4.05;0.88;;;13.40;99.90;;;;;;5014265;28;20402;-54
2024/02/09 14:29:46;;;;;;;3.25;1.00;;;13.40;99.90;;;;;;5014094;28;20094;-50
2024/02/09 14:32:13;;;;;;;2.20;0.95;;;13.40;99.90;;;;;;5014220;28;20030;-52
2024/02/09 14:34:40;;;;;;;2.97;0.85;;;13.40;99.90;;;;;;5013384;28;20506;-54
2024/02/09 14:37:07;;;;;;;1.50;1.00;;;13.40;99.90;;;;;;5014026;28;20037;-50